sensor_id;sensor_type;location;lat;lon;timestamp;pressure;altitude;pressure_sealevel;temperature;humidity
37848;BME280;23688;33.130;-117.188;2023-02-14T00:00:26;99411.50;;;14.04;76.92
37848;BME280;23688;33.130;-117.188;2023-02-14T00:02:52;99409.41;;;14.24;80.14
37848;BME280;23688;33.130;-117.188;2023-02-14T00:05:19;99395.81;;;14.37;80.15
37848;BME280;23688;33.130;-117.188;2023-02-14T00:07:45;99401.66;;;14.62;79.13
37848;BME280;23688;33.130;-117.188;2023-02-14T00:10:12;99408.16;;;14.79;79.24
37848;BME280;23688;33.130;-117.188;2023-02-14T00:12:38;99404.16;;;14.57;80.60
37848;BME280;23688;33.130;-117.188;2023-02-14T00:15:05;99409.13;;;14.13;81.64
37848;BME280;23688;33.130;-117.188;2023-02-14T00:17:55;99395.84;;;14.04;84.74
37848;BME280;23688;33.130;-117.188;2023-02-14T00:20:27;99402.22;;;14.15;83.72
37848;BME280;23688;33.130;-117.188;2023-02-14T00:22:54;99398.34;;;14.34;84.08
37848;BME280;23688;33.130;-117.188;2023-02-14T00:25:20;99395.34;;;14.19;82.50
37848;BME280;23688;33.130;-117.188;2023-02-14T00:27:47;99398.38;;;14.35;83.31
37848;BME280;23688;33.130;-117.188;2023-02-14T00:30:14;99387.50;;;14.19;84.90
37848;BME280;23688;33.130;-117.188;2023-02-14T00:32:41;99378.66;;;13.79;83.70
37848;BME280;23688;33.130;-117.188;2023-02-14T00:35:09;99374.19;;;13.75;83.97
37848;BME280;23688;33.130;-117.188;2023-02-14T00:37:36;99384.34;;;13.97;86.40
37848;BME280;23688;33.130;-117.188;2023-02-14T00:40:04;99377.69;;;14.08;85.82
37848;BME280;23688;33.130;-117.188;2023-02-14T00:42:31;99379.53;;;14.12;85.71
37848;BME280;23688;33.130;-117.188;2023-02-14T00:44:57;99380.28;;;13.74;88.01
37848;BME280;23688;33.130;-117.188;2023-02-14T00:47:24;99391.75;;;13.80;88.13
37848;BME280;23688;33.130;-117.188;2023-02-14T00:49:50;99409.25;;;13.84;88.01
37848;BME280;23688;33.130;-117.188;2023-02-14T00:52:17;99403.00;;;13.78;88.43
37848;BME280;23688;33.130;-117.188;2023-02-14T00:54:43;99393.34;;;13.75;86.88
37848;BME280;23688;33.130;-117.188;2023-02-14T00:57:10;99392.78;;;13.54;87.41
37848;BME280;23688;33.130;-117.188;2023-02-14T00:59:36;99399.63;;;13.21;89.35
37848;BME280;23688;33.130;-117.188;2023-02-14T01:02:03;99409.47;;;13.01;90.70
37848;BME280;23688;33.130;-117.188;2023-02-14T01:04:30;99369.50;;;12.72;91.33
37848;BME280;23688;33.130;-117.188;2023-02-14T01:06:56;99389.41;;;12.70;92.76
37848;BME280;23688;33.130;-117.188;2023-02-14T01:09:22;99418.81;;;12.95;92.50
37848;BME280;23688;33.130;-117.188;2023-02-14T01:11:48;99420.66;;;12.97;91.92
37848;BME280;23688;33.130;-117.188;2023-02-14T01:14:15;99423.78;;;12.85;92.18
37848;BME280;23688;33.130;-117.188;2023-02-14T01:16:41;99417.63;;;12.83;92.29
37848;BME280;23688;33.130;-117.188;2023-02-14T01:19:08;99402.22;;;12.91;92.63
37848;BME280;23688;33.130;-117.188;2023-02-14T01:21:34;99406.84;;;13.00;92.05
37848;BME280;23688;33.130;-117.188;2023-02-14T01:24:04;99405.75;;;12.93;92.14
37848;BME280;23688;33.130;-117.188;2023-02-14T01:26:31;99421.16;;;12.85;92.21
37848;BME280;23688;33.130;-117.188;2023-02-14T01:28:58;99408.22;;;12.89;92.33
37848;BME280;23688;33.130;-117.188;2023-02-14T01:31:29;99409.06;;;12.88;92.53
37848;BME280;23688;33.130;-117.188;2023-02-14T01:33:57;99416.78;;;12.84;92.89
37848;BME280;23688;33.130;-117.188;2023-02-14T01:36:26;99411.41;;;12.80;92.96
37848;BME280;23688;33.130;-117.188;2023-02-14T01:38:55;99406.09;;;12.75;92.91
37848;BME280;23688;33.130;-117.188;2023-02-14T01:41:25;99418.22;;;12.75;93.08
37848;BME280;23688;33.130;-117.188;2023-02-14T01:46:27;99423.09;;;12.64;93.16
37848;BME280;23688;33.130;-117.188;2023-02-14T01:49:02;99433.59;;;12.67;92.72
37848;BME280;23688;33.130;-117.188;2023-02-14T01:51:31;99442.19;;;12.64;92.05
37848;BME280;23688;33.130;-117.188;2023-02-14T01:53:58;99439.53;;;12.63;91.44
37848;BME280;23688;33.130;-117.188;2023-02-14T01:56:37;99436.06;;;12.62;91.35
37848;BME280;23688;33.130;-117.188;2023-02-14T01:59:09;99426.41;;;12.58;90.75
37848;BME280;23688;33.130;-117.188;2023-02-14T02:01:37;99426.25;;;12.54;90.86
37848;BME280;23688;33.130;-117.188;2023-02-14T02:04:10;99430.59;;;12.55;91.07
37848;BME280;23688;33.130;-117.188;2023-02-14T02:06:43;99426.97;;;12.50;91.57
37848;BME280;23688;33.130;-117.188;2023-02-14T02:09:27;99436.34;;;12.45;92.05
37848;BME280;23688;33.130;-117.188;2023-02-14T02:11:56;99438.88;;;12.41;92.08
37848;BME280;23688;33.130;-117.188;2023-02-14T02:14:22;99438.75;;;12.38;92.52
37848;BME280;23688;33.130;-117.188;2023-02-14T02:35:21;99470.31;;;12.22;95.47
37848;BME280;23688;33.130;-117.188;2023-02-14T02:55:10;99468.97;;;12.08;100.00
37848;BME280;23688;33.130;-117.188;2023-02-14T02:57:40;99467.31;;;12.10;100.00
37848;BME280;23688;33.130;-117.188;2023-02-14T03:00:09;99476.78;;;12.09;100.00
37848;BME280;23688;33.130;-117.188;2023-02-14T03:02:40;99464.56;;;12.07;100.00
37848;BME280;23688;33.130;-117.188;2023-02-14T03:05:28;99482.41;;;12.20;100.00
37848;BME280;23688;33.130;-117.188;2023-02-14T03:07:54;99490.41;;;12.26;100.00
37848;BME280;23688;33.130;-117.188;2023-02-14T03:10:26;99487.69;;;12.23;100.00
37848;BME280;23688;33.130;-117.188;2023-02-14T03:24:11;99486.13;;;12.28;100.00
37848;BME280;23688;33.130;-117.188;2023-02-14T03:29:48;99480.13;;;12.29;100.00
37848;BME280;23688;33.130;-117.188;2023-02-14T03:37:51;99471.28;;;12.26;100.00
37848;BME280;23688;33.130;-117.188;2023-02-14T03:40:33;99461.66;;;12.23;100.00
37848;BME280;23688;33.130;-117.188;2023-02-14T03:43:09;99464.38;;;12.01;100.00
37848;BME280;23688;33.130;-117.188;2023-02-14T03:45:53;99473.31;;;12.09;100.00
37848;BME280;23688;33.130;-117.188;2023-02-14T03:48:22;99476.97;;;12.14;100.00
37848;BME280;23688;33.130;-117.188;2023-02-14T03:50:50;99487.34;;;12.12;100.00
37848;BME280;23688;33.130;-117.188;2023-02-14T03:53:23;99471.56;;;12.08;100.00
37848;BME280;23688;33.130;-117.188;2023-02-14T03:58:42;99479.78;;;12.20;100.00
37848;BME280;23688;33.130;-117.188;2023-02-14T04:01:25;99491.97;;;12.21;100.00
37848;BME280;23688;33.130;-117.188;2023-02-14T04:03:55;99511.63;;;12.13;100.00
37848;BME280;23688;33.130;-117.188;2023-02-14T04:06:22;99521.97;;;12.11;100.00
37848;BME280;23688;33.130;-117.188;2023-02-14T04:08:49;99531.91;;;11.97;100.00
37848;BME280;23688;33.130;-117.188;2023-02-14T04:11:15;99516.16;;;11.94;100.00
37848;BME280;23688;33.130;-117.188;2023-02-14T04:13:42;99500.81;;;12.01;100.00
37848;BME280;23688;33.130;-117.188;2023-02-14T04:16:09;99489.94;;;11.88;100.00
37848;BME280;23688;33.130;-117.188;2023-02-14T04:18:36;99500.28;;;12.11;100.00
37848;BME280;23688;33.130;-117.188;2023-02-14T04:21:20;99507.41;;;12.16;100.00
37848;BME280;23688;33.130;-117.188;2023-02-14T04:23:47;99503.84;;;12.13;100.00
37848;BME280;23688;33.130;-117.188;2023-02-14T04:26:13;99521.44;;;12.20;100.00
37848;BME280;23688;33.130;-117.188;2023-02-14T04:28:40;99512.69;;;12.18;100.00
37848;BME280;23688;33.130;-117.188;2023-02-14T04:31:06;99522.81;;;12.10;100.00
37848;BME280;23688;33.130;-117.188;2023-02-14T04:33:33;99501.50;;;11.96;100.00
37848;BME280;23688;33.130;-117.188;2023-02-14T04:36:00;99524.38;;;12.05;100.00
37848;BME280;23688;33.130;-117.188;2023-02-14T04:38:26;99527.25;;;12.13;100.00
37848;BME280;23688;33.130;-117.188;2023-02-14T04:40:52;99509.41;;;11.99;100.00
37848;BME280;23688;33.130;-117.188;2023-02-14T04:43:19;99506.81;;;11.75;100.00
37848;BME280;23688;33.130;-117.188;2023-02-14T04:45:46;99529.72;;;11.86;100.00
37848;BME280;23688;33.130;-117.188;2023-02-14T04:48:12;99525.03;;;11.99;100.00
37848;BME280;23688;33.130;-117.188;2023-02-14T04:50:39;99530.19;;;11.98;100.00
37848;BME280;23688;33.130;-117.188;2023-02-14T04:53:05;99543.13;;;11.96;100.00
37848;BME280;23688;33.130;-117.188;2023-02-14T04:55:31;99549.66;;;12.09;100.00
37848;BME280;23688;33.130;-117.188;2023-02-14T04:57:59;99537.31;;;12.04;100.00
37848;BME280;23688;33.130;-117.188;2023-02-14T05:00:25;99531.44;;;11.85;100.00
37848;BME280;23688;33.130;-117.188;2023-02-14T05:02:52;99546.69;;;11.98;100.00
37848;BME280;23688;33.130;-117.188;2023-02-14T05:05:18;99540.94;;;12.07;100.00
37848;BME280;23688;33.130;-117.188;2023-02-14T05:07:44;99555.72;;;12.08;100.00
37848;BME280;23688;33.130;-117.188;2023-02-14T05:10:13;99537.66;;;12.13;100.00
37848;BME280;23688;33.130;-117.188;2023-02-14T05:12:39;99547.41;;;12.18;100.00
37848;BME280;23688;33.130;-117.188;2023-02-14T05:15:07;99520.13;;;12.07;100.00
37848;BME280;23688;33.130;-117.188;2023-02-14T05:17:34;99502.78;;;12.08;100.00
37848;BME280;23688;33.130;-117.188;2023-02-14T05:20:03;99497.97;;;11.94;100.00
37848;BME280;23688;33.130;-117.188;2023-02-14T05:22:30;99483.91;;;11.89;100.00
37848;BME280;23688;33.130;-117.188;2023-02-14T05:24:57;99481.31;;;11.89;100.00
37848;BME280;23688;33.130;-117.188;2023-02-14T05:27:24;99481.06;;;11.83;100.00
37848;BME280;23688;33.130;-117.188;2023-02-14T05:29:50;99472.94;;;11.74;100.00
37848;BME280;23688;33.130;-117.188;2023-02-14T05:32:16;99495.09;;;11.87;100.00
37848;BME280;23688;33.130;-117.188;2023-02-14T05:34:43;99486.97;;;11.79;100.00
37848;BME280;23688;33.130;-117.188;2023-02-14T05:37:09;99502.81;;;11.85;100.00
37848;BME280;23688;33.130;-117.188;2023-02-14T05:39:36;99511.44;;;11.84;100.00
37848;BME280;23688;33.130;-117.188;2023-02-14T05:42:02;99505.50;;;11.87;100.00
37848;BME280;23688;33.130;-117.188;2023-02-14T05:44:28;99504.34;;;11.80;100.00
37848;BME280;23688;33.130;-117.188;2023-02-14T05:46:54;99486.78;;;11.73;100.00
37848;BME280;23688;33.130;-117.188;2023-02-14T05:49:22;99491.31;;;11.78;100.00
37848;BME280;23688;33.130;-117.188;2023-02-14T05:51:48;99520.31;;;11.89;100.00
37848;BME280;23688;33.130;-117.188;2023-02-14T05:54:15;99510.00;;;11.91;100.00
37848;BME280;23688;33.130;-117.188;2023-02-14T05:56:41;99517.81;;;11.92;100.00
37848;BME280;23688;33.130;-117.188;2023-02-14T05:59:07;99532.63;;;11.93;100.00
37848;BME280;23688;33.130;-117.188;2023-02-14T06:01:34;99543.97;;;11.95;100.00
37848;BME280;23688;33.130;-117.188;2023-02-14T06:04:00;99547.53;;;11.97;100.00
37848;BME280;23688;33.130;-117.188;2023-02-14T06:06:26;99546.69;;;11.98;100.00
37848;BME280;23688;33.130;-117.188;2023-02-14T06:08:53;99565.94;;;12.04;100.00
37848;BME280;23688;33.130;-117.188;2023-02-14T06:11:19;99562.53;;;12.05;100.00
37848;BME280;23688;33.130;-117.188;2023-02-14T06:13:46;99560.84;;;12.07;100.00
37848;BME280;23688;33.130;-117.188;2023-02-14T06:16:12;99569.94;;;12.18;100.00
37848;BME280;23688;33.130;-117.188;2023-02-14T06:18:38;99575.31;;;12.23;100.00
37848;BME280;23688;33.130;-117.188;2023-02-14T06:21:05;99551.78;;;12.19;100.00
37848;BME280;23688;33.130;-117.188;2023-02-14T06:23:41;99556.22;;;12.22;100.00
37848;BME280;23688;33.130;-117.188;2023-02-14T06:26:07;99557.81;;;12.18;100.00
37848;BME280;23688;33.130;-117.188;2023-02-14T06:28:34;99534.81;;;12.07;100.00
37848;BME280;23688;33.130;-117.188;2023-02-14T06:31:00;99554.16;;;12.13;100.00
37848;BME280;23688;33.130;-117.188;2023-02-14T06:33:26;99548.69;;;12.06;100.00
37848;BME280;23688;33.130;-117.188;2023-02-14T06:35:53;99553.03;;;12.07;100.00
37848;BME280;23688;33.130;-117.188;2023-02-14T06:38:19;99558.84;;;11.99;100.00
37848;BME280;23688;33.130;-117.188;2023-02-14T06:40:46;99543.09;;;11.95;100.00
37848;BME280;23688;33.130;-117.188;2023-02-14T06:43:12;99543.13;;;11.96;100.00
37848;BME280;23688;33.130;-117.188;2023-02-14T06:45:39;99563.59;;;11.87;100.00
37848;BME280;23688;33.130;-117.188;2023-02-14T06:48:08;99570.81;;;11.94;100.00
37848;BME280;23688;33.130;-117.188;2023-02-14T06:50:37;99583.00;;;11.95;100.00
37848;BME280;23688;33.130;-117.188;2023-02-14T06:53:04;99583.78;;;11.93;100.00
37848;BME280;23688;33.130;-117.188;2023-02-14T06:58:52;99576.97;;;11.96;100.00
37848;BME280;23688;33.130;-117.188;2023-02-14T07:01:19;99573.19;;;11.88;100.00
37848;BME280;23688;33.130;-117.188;2023-02-14T07:03:45;99582.94;;;11.94;100.00
37848;BME280;23688;33.130;-117.188;2023-02-14T07:06:11;99579.38;;;11.69;100.00
37848;BME280;23688;33.130;-117.188;2023-02-14T07:08:38;99579.75;;;11.78;100.00
37848;BME280;23688;33.130;-117.188;2023-02-14T07:11:07;99585.47;;;11.92;100.00
37848;BME280;23688;33.130;-117.188;2023-02-14T07:13:34;99579.56;;;11.96;100.00
37848;BME280;23688;33.130;-117.188;2023-02-14T07:16:00;99575.25;;;11.97;100.00
37848;BME280;23688;33.130;-117.188;2023-02-14T07:18:27;99568.34;;;11.97;100.00
37848;BME280;23688;33.130;-117.188;2023-02-14T07:20:53;99565.84;;;12.01;100.00
37848;BME280;23688;33.130;-117.188;2023-02-14T07:23:19;99560.69;;;12.02;100.00
37848;BME280;23688;33.130;-117.188;2023-02-14T07:25:46;99552.84;;;12.01;100.00
37848;BME280;23688;33.130;-117.188;2023-02-14T07:28:12;99534.34;;;11.93;100.00
37848;BME280;23688;33.130;-117.188;2023-02-14T07:30:38;99515.59;;;11.79;100.00
37848;BME280;23688;33.130;-117.188;2023-02-14T07:33:05;99511.22;;;11.78;100.00
37848;BME280;23688;33.130;-117.188;2023-02-14T07:35:32;99517.75;;;11.67;100.00
37848;BME280;23688;33.130;-117.188;2023-02-14T07:38:00;99520.72;;;11.77;100.00
37848;BME280;23688;33.130;-117.188;2023-02-14T07:40:26;99521.31;;;11.70;100.00
37848;BME280;23688;33.130;-117.188;2023-02-14T07:42:58;99522.34;;;11.74;100.00
37848;BME280;23688;33.130;-117.188;2023-02-14T07:45:25;99534.50;;;11.75;100.00
37848;BME280;23688;33.130;-117.188;2023-02-14T07:47:53;99556.94;;;11.71;100.00
37848;BME280;23688;33.130;-117.188;2023-02-14T07:50:21;99547.19;;;11.66;100.00
37848;BME280;23688;33.130;-117.188;2023-02-14T07:52:48;99565.72;;;11.75;100.00
37848;BME280;23688;33.130;-117.188;2023-02-14T07:55:14;99536.13;;;11.71;100.00
37848;BME280;23688;33.130;-117.188;2023-02-14T07:57:41;99567.03;;;11.86;100.00
37848;BME280;23688;33.130;-117.188;2023-02-14T08:00:08;99556.22;;;11.75;100.00
37848;BME280;23688;33.130;-117.188;2023-02-14T08:02:35;99557.81;;;11.72;100.00
37848;BME280;23688;33.130;-117.188;2023-02-14T08:05:01;99565.53;;;11.70;100.00
37848;BME280;23688;33.130;-117.188;2023-02-14T08:07:28;99568.09;;;11.69;100.00
37848;BME280;23688;33.130;-117.188;2023-02-14T08:09:54;99551.44;;;11.64;100.00
37848;BME280;23688;33.130;-117.188;2023-02-14T08:12:20;99556.81;;;11.68;100.00
37848;BME280;23688;33.130;-117.188;2023-02-14T08:15:05;99565.41;;;11.66;100.00
37848;BME280;23688;33.130;-117.188;2023-02-14T08:17:49;99559.41;;;11.68;100.00
37848;BME280;23688;33.130;-117.188;2023-02-14T08:20:15;99546.09;;;11.61;100.00
37848;BME280;23688;33.130;-117.188;2023-02-14T08:22:42;99550.84;;;11.71;100.00
37848;BME280;23688;33.130;-117.188;2023-02-14T08:25:08;99545.75;;;11.74;100.00
37848;BME280;23688;33.130;-117.188;2023-02-14T08:27:34;99535.88;;;11.65;100.00
37848;BME280;23688;33.130;-117.188;2023-02-14T08:30:01;99537.59;;;11.65;100.00
37848;BME280;23688;33.130;-117.188;2023-02-14T08:32:27;99525.47;;;11.65;100.00
37848;BME280;23688;33.130;-117.188;2023-02-14T08:34:56;99539.59;;;11.72;100.00
37848;BME280;23688;33.130;-117.188;2023-02-14T08:37:22;99545.69;;;11.72;100.00
37848;BME280;23688;33.130;-117.188;2023-02-14T08:39:49;99523.59;;;11.61;100.00
37848;BME280;23688;33.130;-117.188;2023-02-14T08:42:15;99544.00;;;11.73;100.00
37848;BME280;23688;33.130;-117.188;2023-02-14T08:44:42;99540.63;;;11.75;100.00
37848;BME280;23688;33.130;-117.188;2023-02-14T08:47:08;99543.69;;;11.65;100.00
37848;BME280;23688;33.130;-117.188;2023-02-14T08:49:37;99524.38;;;11.59;100.00
37848;BME280;23688;33.130;-117.188;2023-02-14T08:52:06;99540.31;;;11.68;100.00
37848;BME280;23688;33.130;-117.188;2023-02-14T08:54:32;99518.22;;;11.56;100.00
37848;BME280;23688;33.130;-117.188;2023-02-14T08:57:01;99535.78;;;11.62;100.00
37848;BME280;23688;33.130;-117.188;2023-02-14T08:59:28;99544.59;;;11.66;100.00
37848;BME280;23688;33.130;-117.188;2023-02-14T09:01:54;99550.72;;;11.68;100.00
37848;BME280;23688;33.130;-117.188;2023-02-14T09:04:21;99552.50;;;11.69;100.00
37848;BME280;23688;33.130;-117.188;2023-02-14T09:06:47;99557.00;;;11.73;100.00
37848;BME280;23688;33.130;-117.188;2023-02-14T09:09:13;99567.41;;;11.73;100.00
37848;BME280;23688;33.130;-117.188;2023-02-14T09:11:44;99578.69;;;11.73;100.00
37848;BME280;23688;33.130;-117.188;2023-02-14T09:14:10;99562.06;;;11.70;99.36
37848;BME280;23688;33.130;-117.188;2023-02-14T09:16:37;99563.13;;;11.75;99.75
37848;BME280;23688;33.130;-117.188;2023-02-14T09:19:04;99571.75;;;11.74;100.00
37848;BME280;23688;33.130;-117.188;2023-02-14T09:21:33;99558.56;;;11.69;99.82
37848;BME280;23688;33.130;-117.188;2023-02-14T09:23:58;99579.66;;;11.77;99.52
37848;BME280;23688;33.130;-117.188;2023-02-14T09:26:25;99572.72;;;11.76;99.19
37848;BME280;23688;33.130;-117.188;2023-02-14T09:28:51;99569.34;;;11.78;99.15
37848;BME280;23688;33.130;-117.188;2023-02-14T09:31:23;99561.44;;;11.75;98.39
37848;BME280;23688;33.130;-117.188;2023-02-14T09:33:50;99544.19;;;11.79;97.47
37848;BME280;23688;33.130;-117.188;2023-02-14T09:36:19;99537.19;;;11.76;97.11
37848;BME280;23688;33.130;-117.188;2023-02-14T09:39:03;99542.97;;;11.69;97.41
37848;BME280;23688;33.130;-117.188;2023-02-14T09:44:23;99544.69;;;11.69;97.64
37848;BME280;23688;33.130;-117.188;2023-02-14T09:46:58;99535.84;;;11.64;98.09
37848;BME280;23688;33.130;-117.188;2023-02-14T09:49:31;99537.59;;;11.65;98.13
37848;BME280;23688;33.130;-117.188;2023-02-14T09:52:01;99528.81;;;11.61;98.42
37848;BME280;23688;33.130;-117.188;2023-02-14T09:54:29;99517.38;;;11.57;98.50
37848;BME280;23688;33.130;-117.188;2023-02-14T09:57:07;99504.28;;;11.54;99.25
37848;BME280;23688;33.130;-117.188;2023-02-14T10:10:43;99491.69;;;11.43;99.60
37848;BME280;23688;33.130;-117.188;2023-02-14T10:13:18;99489.81;;;11.39;99.67
37848;BME280;23688;33.130;-117.188;2023-02-14T10:15:57;99490.81;;;11.42;99.34
37848;BME280;23688;33.130;-117.188;2023-02-14T10:18:35;99482.78;;;11.36;99.17
37848;BME280;23688;33.130;-117.188;2023-02-14T10:21:05;99488.28;;;11.44;98.38
37848;BME280;23688;33.130;-117.188;2023-02-14T10:23:40;99494.13;;;11.38;99.32
37848;BME280;23688;33.130;-117.188;2023-02-14T10:28:49;99501.22;;;11.42;98.64
37848;BME280;23688;33.130;-117.188;2023-02-14T10:34:18;99505.22;;;11.56;98.26
37848;BME280;23688;33.130;-117.188;2023-02-14T10:45:36;99509.38;;;11.51;98.17
37848;BME280;23688;33.130;-117.188;2023-02-14T10:48:50;99505.72;;;11.46;98.24
37848;BME280;23688;33.130;-117.188;2023-02-14T10:56:27;99489.63;;;11.56;97.65
37848;BME280;23688;33.130;-117.188;2023-02-14T10:58:58;99507.59;;;11.73;97.56
37848;BME280;23688;33.130;-117.188;2023-02-14T11:01:28;99510.31;;;11.77;97.63
37848;BME280;23688;33.130;-117.188;2023-02-14T11:03:59;99504.50;;;11.85;97.25
37848;BME280;23688;33.130;-117.188;2023-02-14T11:06:32;99492.25;;;11.81;97.09
37848;BME280;23688;33.130;-117.188;2023-02-14T11:08:58;99485.31;;;11.81;97.65
37848;BME280;23688;33.130;-117.188;2023-02-14T11:11:29;99494.94;;;11.84;97.74
37848;BME280;23688;33.130;-117.188;2023-02-14T11:13:57;99493.31;;;11.86;97.64
37848;BME280;23688;33.130;-117.188;2023-02-14T11:16:32;99488.97;;;11.86;97.63
37848;BME280;23688;33.130;-117.188;2023-02-14T11:21:42;99468.16;;;11.86;98.04
37848;BME280;23688;33.130;-117.188;2023-02-14T11:24:27;99465.41;;;11.82;98.44
37848;BME280;23688;33.130;-117.188;2023-02-14T11:27:03;99461.91;;;11.81;98.54
37848;BME280;23688;33.130;-117.188;2023-02-14T11:29:43;99460.00;;;11.75;98.77
37848;BME280;23688;33.130;-117.188;2023-02-14T11:35:04;99456.22;;;11.67;100.00
37848;BME280;23688;33.130;-117.188;2023-02-14T11:37:38;99440.41;;;11.61;99.96
37848;BME280;23688;33.130;-117.188;2023-02-14T11:45:42;99438.44;;;11.55;100.00
37848;BME280;23688;33.130;-117.188;2023-02-14T11:48:20;99446.38;;;11.59;100.00
37848;BME280;23688;33.130;-117.188;2023-02-14T11:51:12;99429.88;;;11.58;100.00
37848;BME280;23688;33.130;-117.188;2023-02-14T11:53:43;99434.19;;;11.57;100.00
37848;BME280;23688;33.130;-117.188;2023-02-14T11:56:13;99413.53;;;11.38;100.00
37848;BME280;23688;33.130;-117.188;2023-02-14T12:01:13;99432.19;;;11.50;100.00
37848;BME280;23688;33.130;-117.188;2023-02-14T12:03:47;99436.25;;;11.42;100.00
37848;BME280;23688;33.130;-117.188;2023-02-14T12:06:33;99438.06;;;11.45;100.00
37848;BME280;23688;33.130;-117.188;2023-02-14T12:12:14;99450.19;;;11.44;100.00
37848;BME280;23688;33.130;-117.188;2023-02-14T12:14:41;99439.81;;;11.46;100.00
37848;BME280;23688;33.130;-117.188;2023-02-14T12:22:31;99444.97;;;11.44;100.00
37848;BME280;23688;33.130;-117.188;2023-02-14T12:25:05;99435.28;;;11.40;100.00
37848;BME280;23688;33.130;-117.188;2023-02-14T12:30:20;99424.78;;;11.37;100.00
37848;BME280;23688;33.130;-117.188;2023-02-14T12:32:54;99425.47;;;11.31;100.00
37848;BME280;23688;33.130;-117.188;2023-02-14T12:36:02;99422.00;;;11.32;100.00
37848;BME280;23688;33.130;-117.188;2023-02-14T12:41:36;99427.31;;;11.35;100.00
37848;BME280;23688;33.130;-117.188;2023-02-14T12:47:18;99428.44;;;11.42;100.00
37848;BME280;23688;33.130;-117.188;2023-02-14T12:55:43;99433.41;;;11.60;100.00
37848;BME280;23688;33.130;-117.188;2023-02-14T13:03:49;99417.59;;;11.54;100.00
37848;BME280;23688;33.130;-117.188;2023-02-14T13:20:03;99396.41;;;11.43;100.00
37848;BME280;23688;33.130;-117.188;2023-02-14T13:22:31;99381.47;;;11.38;100.00
37848;BME280;23688;33.130;-117.188;2023-02-14T13:25:03;99399.75;;;11.39;100.00
37848;BME280;23688;33.130;-117.188;2023-02-14T13:27:33;99398.09;;;11.41;100.00
37848;BME280;23688;33.130;-117.188;2023-02-14T13:30:35;99394.56;;;11.41;100.00
37848;BME280;23688;33.130;-117.188;2023-02-14T13:33:42;99378.97;;;11.41;100.00
37848;BME280;23688;33.130;-117.188;2023-02-14T13:36:11;99386.28;;;11.51;100.00
37848;BME280;23688;33.130;-117.188;2023-02-14T13:38:57;99386.34;;;11.52;100.00
37848;BME280;23688;33.130;-117.188;2023-02-14T13:41:25;99382.19;;;11.57;100.00
37848;BME280;23688;33.130;-117.188;2023-02-14T13:44:00;99377.09;;;11.61;100.00
37848;BME280;23688;33.130;-117.188;2023-02-14T13:49:06;99379.66;;;11.59;100.00
37848;BME280;23688;33.130;-117.188;2023-02-14T13:51:50;99389.38;;;11.65;100.00
37848;BME280;23688;33.130;-117.188;2023-02-14T13:56:58;99385.81;;;11.63;100.00
37848;BME280;23688;33.130;-117.188;2023-02-14T13:59:29;99373.91;;;11.44;100.00
37848;BME280;23688;33.130;-117.188;2023-02-14T14:04:51;99392.31;;;11.26;100.00
37848;BME280;23688;33.130;-117.188;2023-02-14T14:07:23;99389.25;;;11.13;100.00
37848;BME280;23688;33.130;-117.188;2023-02-14T14:09:53;99387.38;;;10.87;100.00
37848;BME280;23688;33.130;-117.188;2023-02-14T14:22:56;99388.25;;;10.65;100.00
37848;BME280;23688;33.130;-117.188;2023-02-14T14:25:38;99390.34;;;10.74;100.00
37848;BME280;23688;33.130;-117.188;2023-02-14T14:28:31;99394.81;;;10.78;100.00
37848;BME280;23688;33.130;-117.188;2023-02-14T14:30:58;99400.16;;;10.81;100.00
37848;BME280;23688;33.130;-117.188;2023-02-14T14:33:31;99391.03;;;10.69;100.00
37848;BME280;23688;33.130;-117.188;2023-02-14T14:36:09;99394.41;;;10.67;100.00
37848;BME280;23688;33.130;-117.188;2023-02-14T14:38:48;99383.84;;;10.85;100.00
37848;BME280;23688;33.130;-117.188;2023-02-14T14:41:16;99398.72;;;10.89;100.00
37848;BME280;23688;33.130;-117.188;2023-02-14T14:43:42;99412.66;;;10.91;100.00
37848;BME280;23688;33.130;-117.188;2023-02-14T14:46:13;99396.34;;;10.73;100.00
37848;BME280;23688;33.130;-117.188;2023-02-14T14:48:48;99410.56;;;10.82;100.00
37848;BME280;23688;33.130;-117.188;2023-02-14T14:51:31;99416.03;;;10.66;100.00
37848;BME280;23688;33.130;-117.188;2023-02-14T14:56:33;99413.59;;;10.70;100.00
37848;BME280;23688;33.130;-117.188;2023-02-14T14:59:25;99422.94;;;10.88;100.00
37848;BME280;23688;33.130;-117.188;2023-02-14T15:01:53;99416.19;;;10.93;100.00
37848;BME280;23688;33.130;-117.188;2023-02-14T15:04:26;99418.31;;;10.81;100.00
37848;BME280;23688;33.130;-117.188;2023-02-14T15:06:56;99416.41;;;10.99;100.00
37848;BME280;23688;33.130;-117.188;2023-02-14T15:11:59;99422.09;;;10.89;99.23
37848;BME280;23688;33.130;-117.188;2023-02-14T15:14:49;99431.41;;;11.06;98.49
37848;BME280;23688;33.130;-117.188;2023-02-14T15:17:21;99428.63;;;11.02;98.07
37848;BME280;23688;33.130;-117.188;2023-02-14T15:19:55;99432.16;;;11.02;97.19
37848;BME280;23688;33.130;-117.188;2023-02-14T15:22:39;99424.94;;;11.18;97.21
37848;BME280;23688;33.130;-117.188;2023-02-14T15:25:12;99422.91;;;11.33;96.89
37848;BME280;23688;33.130;-117.188;2023-02-14T15:27:39;99423.66;;;11.30;96.39
37848;BME280;23688;33.130;-117.188;2023-02-14T15:30:24;99417.63;;;11.07;97.17
37848;BME280;23688;33.130;-117.188;2023-02-14T15:32:54;99414.78;;;11.01;97.64
37848;BME280;23688;33.130;-117.188;2023-02-14T15:35:29;99427.91;;;11.28;96.77